createdAt,value
2023-04-19T00:00:38.318Z,100117.19
2023-04-19T00:03:06.486Z,100120.75
2023-04-19T00:05:33.617Z,100123.75
2023-04-19T00:08:00.441Z,100127.59
2023-04-19T00:10:27.345Z,100127.09
2023-04-19T00:12:54.165Z,100126.94
2023-04-19T00:15:21.084Z,100130.78
2023-04-19T00:17:47.897Z,100121.72
2023-04-19T00:20:14.766Z,100120.38
2023-04-19T00:22:41.986Z,100131.47
2023-04-19T00:25:08.955Z,100128.28
2023-04-19T00:27:35.993Z,100130.13
2023-04-19T00:30:03.011Z,100122.22
2023-04-19T00:32:31.773Z,100120.41
2023-04-19T00:34:58.710Z,100122.72
2023-04-19T00:37:25.503Z,100126.59
2023-04-19T00:39:52.290Z,100123.75
2023-04-19T00:42:19.218Z,100125.75
2023-04-19T00:44:47.126Z,100130.28
2023-04-19T00:47:15.965Z,100134.31
2023-04-19T00:49:43.497Z,100127.41
2023-04-19T00:52:10.440Z,100136.13
2023-04-19T00:54:37.584Z,100133.28
2023-04-19T00:57:04.627Z,100141.00
2023-04-19T00:59:31.620Z,100141.81
2023-04-19T01:01:58.582Z,100141.47
2023-04-19T01:04:28.589Z,100141.81
2023-04-19T01:06:55.697Z,100136.09
2023-04-19T01:09:22.543Z,100143.78
2023-04-19T01:11:49.413Z,100145.25
2023-04-19T01:14:16.548Z,100147.09
2023-04-19T01:16:46.732Z,100142.41
2023-04-19T01:19:13.546Z,100142.34
2023-04-19T01:21:40.559Z,100144.34
2023-04-19T01:24:07.557Z,100138.69
2023-04-19T01:26:34.413Z,100140.50
2023-04-19T01:29:02.791Z,100147.38
2023-04-19T01:31:29.659Z,100143.06
2023-04-19T01:33:56.514Z,100140.41
2023-04-19T01:36:23.369Z,100138.78
2023-04-19T01:38:50.646Z,100138.91
2023-04-19T01:41:17.489Z,100135.59
2023-04-19T01:43:44.361Z,100138.91
2023-04-19T01:46:11.364Z,100144.09
2023-04-19T01:48:38.361Z,100143.94
2023-04-19T01:51:05.446Z,100143.78
2023-04-19T01:53:34.692Z,100134.22
2023-04-19T01:56:01.475Z,100134.22
2023-04-19T01:58:28.324Z,100137.06
2023-04-19T02:00:55.443Z,100134.06
2023-04-19T02:03:22.535Z,100137.22
2023-04-19T02:05:49.775Z,100136.38
2023-04-19T02:08:16.570Z,100132.31
2023-04-19T02:10:43.370Z,100131.03
2023-04-19T02:13:10.420Z,100139.72
2023-04-19T02:15:37.485Z,100132.13
2023-04-19T02:18:24.310Z,100136.38
2023-04-19T02:20:51.873Z,100127.44
2023-04-19T02:23:18.736Z,100137.31
2023-04-19T02:25:45.639Z,100135.25
2023-04-19T02:28:14.656Z,100138.75
2023-04-19T02:30:41.470Z,100145.56
2023-04-19T02:33:08.313Z,100151.28
2023-04-19T02:35:35.278Z,100152.09
2023-04-19T02:38:03.368Z,100148.91
2023-04-19T02:40:30.358Z,100153.22
2023-04-19T02:42:58.927Z,100159.72
2023-04-19T02:45:25.764Z,100152.56
2023-04-19T02:47:55.489Z,100150.91
2023-04-19T02:50:23.595Z,100148.25
2023-04-19T02:52:51.396Z,100147.56
2023-04-19T02:55:19.862Z,100145.56
2023-04-19T02:57:50.215Z,100146.94
2023-04-19T03:00:17.740Z,100143.91
2023-04-19T03:02:56.453Z,100150.63
2023-04-19T03:05:24.066Z,100146.63
2023-04-19T03:07:50.906Z,100151.63
2023-04-19T03:10:18.458Z,100154.47
2023-04-19T03:12:45.258Z,100140.91
2023-04-19T03:15:12.108Z,100151.97
2023-04-19T03:17:39.125Z,100148.94
2023-04-19T03:20:17.204Z,100150.09
2023-04-19T03:22:45.612Z,100160.25
2023-04-19T03:25:16.132Z,100157.22
2023-04-19T03:27:48.373Z,100159.38
2023-04-19T03:30:18.929Z,100158.41
2023-04-19T03:32:46.684Z,100156.38
2023-04-19T03:35:14.128Z,100153.66
2023-04-19T03:37:41.034Z,100153.75
2023-04-19T03:40:09.209Z,100162.69
2023-04-19T03:42:36.833Z,100165.72
2023-04-19T03:45:09.969Z,100165.94
2023-04-19T03:47:40.985Z,100165.97
2023-04-19T03:50:08.125Z,100172.03
2023-04-19T03:52:36.412Z,100165.53
2023-04-19T03:55:03.489Z,100168.53
2023-04-19T03:57:35.811Z,100169.72
2023-04-19T04:00:10.920Z,100167.25
2023-04-19T04:02:41.071Z,100169.47
2023-04-19T04:05:08.811Z,100169.78
2023-04-19T04:07:36.907Z,100173.00
2023-04-19T04:10:04.603Z,100176.16
2023-04-19T04:12:36.503Z,100165.31
2023-04-19T04:15:05.411Z,100181.69
2023-04-19T04:17:33.719Z,100168.19
2023-04-19T04:20:01.582Z,100168.34
2023-04-19T04:22:31.396Z,100175.69
2023-04-19T04:24:59.422Z,100172.75
2023-04-19T04:27:31.716Z,100176.13
2023-04-19T04:29:58.721Z,100172.22
2023-04-19T04:32:25.852Z,100173.94
2023-04-19T04:34:58.594Z,100172.47
2023-04-19T04:37:35.044Z,100175.66
2023-04-19T04:40:05.071Z,100174.50
2023-04-19T04:42:33.697Z,100178.25
2023-04-19T04:45:01.751Z,100176.72
2023-04-19T04:47:34.396Z,100183.09
2023-04-19T04:50:05.429Z,100182.59
2023-04-19T04:52:32.854Z,100182.75
2023-04-19T04:55:17.103Z,100182.59
2023-04-19T04:57:45.032Z,100183.59
2023-04-19T05:00:21.583Z,100187.59
2023-04-19T05:02:57.476Z,100185.41
2023-04-19T05:05:24.871Z,100183.72
2023-04-19T05:07:51.805Z,100176.81
2023-04-19T05:10:18.827Z,100182.88
2023-04-19T05:12:47.966Z,100189.78
2023-04-19T05:15:15.540Z,100192.66
2023-04-19T05:17:49.392Z,100189.75
2023-04-19T05:20:16.333Z,100194.59
2023-04-19T05:22:44.280Z,100197.13
2023-04-19T05:25:12.017Z,100204.84
2023-04-19T05:27:39.848Z,100208.28
2023-04-19T05:30:07.701Z,100207.91
2023-04-19T05:32:38.629Z,100211.22
2023-04-19T05:35:09.192Z,100198.94
2023-04-19T05:37:36.928Z,100202.41
2023-04-19T05:40:10.301Z,100197.53
2023-04-19T05:42:38.508Z,100204.22
2023-04-19T05:45:07.358Z,100196.13
2023-04-19T05:47:34.490Z,100199.47
2023-04-19T05:50:18.186Z,100204.78
2023-04-19T05:52:52.024Z,100204.66
2023-04-19T05:55:18.981Z,100190.84
2023-04-19T05:57:47.169Z,100199.22
2023-04-19T06:00:14.484Z,100205.09
2023-04-19T06:02:47.461Z,100209.75
2023-04-19T06:05:14.799Z,100207.56
2023-04-19T06:07:47.227Z,100212.41
2023-04-19T06:10:22.125Z,100210.66
2023-04-19T06:12:49.045Z,100211.97
2023-04-19T06:15:16.056Z,100211.91
2023-04-19T06:17:42.990Z,100217.38
2023-04-19T06:20:10.327Z,100213.13
2023-04-19T06:22:42.565Z,100222.03
2023-04-19T06:25:09.594Z,100217.13
2023-04-19T06:27:36.687Z,100219.00
2023-04-19T06:30:03.878Z,100221.50
2023-04-19T06:32:31.344Z,100216.06
2023-04-19T06:34:58.166Z,100211.97
2023-04-19T06:37:25.135Z,100215.59
2023-04-19T06:39:51.945Z,100216.91
2023-04-19T06:42:20.230Z,100216.56
2023-04-19T06:44:47.191Z,100224.53
2023-04-19T06:47:13.989Z,100219.44
2023-04-19T06:49:40.977Z,100213.03
2023-04-19T06:52:07.811Z,100212.66
2023-04-19T06:54:34.833Z,100212.66
2023-04-19T06:57:02.852Z,100206.06
2023-04-19T06:59:31.772Z,100217.97
2023-04-19T07:01:58.843Z,100214.53
2023-04-19T07:04:26.480Z,100210.72
2023-04-19T07:06:53.476Z,100217.69
2023-04-19T07:09:20.552Z,100214.78
2023-04-19T07:11:48.018Z,100205.13
2023-04-19T07:14:15.086Z,100208.03
2023-04-19T07:16:42.274Z,100211.56
2023-04-19T07:19:09.090Z,100205.69
2023-04-19T07:21:36.058Z,100207.81
2023-04-19T07:24:02.947Z,100198.53
2023-04-19T07:26:29.948Z,100204.09
2023-04-19T07:28:57.147Z,100206.72
2023-04-19T07:31:25.696Z,100202.34
2023-04-19T07:33:53.597Z,100198.72
2023-04-19T07:36:23.205Z,100204.56
2023-04-19T07:38:50.059Z,100204.00
2023-04-19T07:41:17.466Z,100200.47
2023-04-19T07:43:44.438Z,100205.13
2023-04-19T07:46:12.054Z,100207.53
2023-04-19T07:48:39.352Z,100196.75
2023-04-19T07:51:12.395Z,100201.19
2023-04-19T07:53:40.223Z,100212.72
2023-04-19T07:56:07.742Z,100214.34
2023-04-19T07:58:35.546Z,100213.66
2023-04-19T08:01:02.657Z,100211.47
2023-04-19T08:03:30.523Z,100206.78
2023-04-19T08:05:57.597Z,100210.97
2023-04-19T08:08:26.031Z,100210.59
2023-04-19T08:10:55.354Z,100208.50
2023-04-19T08:13:22.260Z,100209.34
2023-04-19T08:18:19.363Z,100202.06
2023-04-19T08:20:46.906Z,100198.63
2023-04-19T08:23:22.374Z,100199.50
2023-04-19T08:25:52.863Z,100209.13
2023-04-19T08:28:19.810Z,100198.88
2023-04-19T08:30:46.621Z,100199.50
2023-04-19T08:33:13.643Z,100203.34
2023-04-19T08:35:45.748Z,100200.66
2023-04-19T08:38:12.659Z,100198.25
2023-04-19T08:40:45.036Z,100190.84
2023-04-19T08:43:11.989Z,100196.00
2023-04-19T08:45:58.795Z,100199.81
2023-04-19T08:48:27.519Z,100196.03
2023-04-19T08:51:04.399Z,100198.75
2023-04-19T08:53:33.552Z,100192.97
2023-04-19T08:58:52.146Z,100195.84
2023-04-19T09:01:34.028Z,100182.75
2023-04-19T09:04:16.944Z,100188.75
2023-04-19T09:06:49.960Z,100182.31
2023-04-19T09:11:54.350Z,100180.59
2023-04-19T09:14:22.250Z,100179.41
2023-04-19T09:16:49.560Z,100178.25
2023-04-19T09:19:24.748Z,100165.00
2023-04-19T09:21:54.986Z,100178.28
2023-04-19T09:25:32.258Z,100163.75
2023-04-19T09:27:41.173Z,100166.53
2023-04-19T09:30:14.800Z,100173.81
2023-04-19T09:32:48.828Z,100161.78
2023-04-19T09:35:16.256Z,100157.88
2023-04-19T09:40:22.885Z,100155.22
2023-04-19T09:48:03.467Z,100147.34
2023-04-19T09:50:31.718Z,100158.56
2023-04-19T09:52:59.315Z,100154.66
2023-04-19T09:55:28.839Z,100152.81
2023-04-19T09:57:56.664Z,100154.03
2023-04-19T10:00:23.800Z,100150.00
2023-04-19T10:02:58.438Z,100134.16
2023-04-19T10:05:26.415Z,100146.19
2023-04-19T10:07:56.747Z,100150.97
2023-04-19T10:10:40.495Z,100146.84
2023-04-19T10:13:19.894Z,100147.75
2023-04-19T10:15:52.514Z,100145.66
2023-04-19T10:18:20.636Z,100140.69
2023-04-19T10:20:57.103Z,100148.09
2023-04-19T10:23:24.735Z,100131.44
2023-04-19T10:25:56.196Z,100130.22
2023-04-19T10:28:23.432Z,100131.06
2023-04-19T10:30:54.555Z,100127.50
2023-04-19T10:33:25.476Z,100138.50
2023-04-19T10:35:55.544Z,100137.13
2023-04-19T10:38:35.535Z,100135.03
2023-04-19T10:41:03.933Z,100124.44
2023-04-19T10:43:31.632Z,100120.84
2023-04-19T10:46:06.417Z,100124.00
2023-04-19T10:48:38.343Z,100121.28
2023-04-19T10:51:19.296Z,100115.28
2023-04-19T10:53:49.353Z,100122.47
2023-04-19T10:56:17.906Z,100118.31
2023-04-19T10:59:04.963Z,100111.03
2023-04-19T11:01:40.260Z,100112.09
2023-04-19T11:04:08.180Z,100104.78
2023-04-19T11:06:35.148Z,100105.81
2023-04-19T11:09:05.910Z,100102.06
2023-04-19T11:11:36.385Z,100102.06
2023-04-19T11:14:04.372Z,100106.84
2023-04-19T11:19:05.030Z,100095.59
2023-04-19T11:21:33.260Z,100098.28
2023-04-19T11:24:07.212Z,100088.94
2023-04-19T11:26:34.092Z,100082.47
2023-04-19T11:29:01.156Z,100092.06
2023-04-19T11:31:28.499Z,100089.13
2023-04-19T11:33:55.386Z,100077.41
2023-04-19T11:36:22.426Z,100072.38
2023-04-19T11:38:49.597Z,100077.94
2023-04-19T11:41:16.483Z,100077.34
2023-04-19T11:43:45.504Z,100073.13
2023-04-19T11:46:13.415Z,100075.88
2023-04-19T11:48:50.699Z,100068.94
2023-04-19T11:51:17.529Z,100076.38
2023-04-19T11:53:44.437Z,100075.41
2023-04-19T11:56:11.396Z,100077.47
2023-04-19T11:58:40.140Z,100071.28
2023-04-19T12:01:17.010Z,100068.94
2023-04-19T12:03:48.384Z,100079.59
2023-04-19T12:06:28.703Z,100076.13
2023-04-19T12:08:56.344Z,100069.22
2023-04-19T12:11:24.727Z,100065.84
2023-04-19T12:14:10.445Z,100064.28
2023-04-19T12:16:37.455Z,100064.47
2023-04-19T12:19:14.400Z,100062.19
2023-04-19T12:21:41.666Z,100059.53
2023-04-19T12:24:08.603Z,100063.56
2023-04-19T12:26:36.073Z,100059.47
2023-04-19T12:29:03.873Z,100060.97
2023-04-19T12:31:32.985Z,100049.91
2023-04-19T12:34:00.157Z,100039.69
2023-04-19T12:36:28.181Z,100056.03
2023-04-19T12:38:55.042Z,100043.13
2023-04-19T12:41:22.036Z,100047.59
2023-04-19T12:43:48.998Z,100050.97
2023-04-19T12:46:15.889Z,100047.75
2023-04-19T12:48:42.864Z,100056.31
2023-04-19T12:51:09.747Z,100041.75
2023-04-19T12:53:36.676Z,100037.25
2023-04-19T12:56:03.690Z,100034.31
2023-04-19T12:58:32.289Z,100033.84
2023-04-19T13:00:59.223Z,100032.94
2023-04-19T13:03:26.260Z,100030.66
2023-04-19T13:05:53.373Z,100018.50
2023-04-19T13:08:28.229Z,100024.00
2023-04-19T13:11:04.195Z,100033.34
2023-04-19T13:13:31.356Z,100025.13
2023-04-19T13:15:58.240Z,100022.88
2023-04-19T13:18:25.195Z,100016.00
2023-04-19T13:20:54.023Z,100034.81
2023-04-19T13:23:20.796Z,100032.53
2023-04-19T13:25:47.561Z,100037.84
2023-04-19T13:28:14.638Z,100032.75
2023-04-19T13:30:41.481Z,100024.63
2023-04-19T13:33:09.048Z,100030.16
2023-04-19T13:35:36.118Z,100024.13
2023-04-19T13:38:02.980Z,100036.09
2023-04-19T13:40:29.882Z,100023.84
2023-04-19T13:43:15.535Z,100024.34
2023-04-19T13:45:42.366Z,100031.19
2023-04-19T13:48:27.780Z,100033.97
2023-04-19T13:50:55.873Z,100021.66
2023-04-19T13:53:41.066Z,100023.19
2023-04-19T13:56:11.168Z,100023.78
2023-04-19T13:58:56.509Z,100028.47
2023-04-19T14:01:42.217Z,100032.88
2023-04-19T14:04:09.266Z,100030.78
2023-04-19T14:07:13.238Z,100012.81
2023-04-19T14:09:40.320Z,100026.28
2023-04-19T14:12:09.012Z,100034.78
2023-04-19T14:14:54.533Z,100029.63
2023-04-19T14:17:21.413Z,100030.25
2023-04-19T14:19:48.267Z,100026.06
2023-04-19T14:22:16.461Z,100016.94
2023-04-19T14:25:20.979Z,100034.44
2023-04-19T14:27:47.823Z,100026.69
2023-04-19T14:30:14.789Z,100025.22
2023-04-19T14:33:19.491Z,100035.84
2023-04-19T14:35:46.517Z,100037.06
2023-04-19T14:38:13.437Z,100021.13
2023-04-19T14:43:24.626Z,100037.06
2023-04-19T14:45:51.883Z,100022.97
2023-04-19T14:48:21.386Z,100024.81
2023-04-19T14:53:34.095Z,100026.34
2023-04-19T14:56:20.114Z,100028.59
2023-04-19T14:58:47.015Z,100024.63
2023-04-19T15:01:32.776Z,100021.75
2023-04-19T15:04:40.831Z,100025.97
2023-04-19T15:09:52.547Z,100013.19
2023-04-19T15:12:38.764Z,100013.66
2023-04-19T15:15:24.501Z,100018.72
2023-04-19T15:17:51.600Z,100014.34
2023-04-19T15:20:18.981Z,100012.47
2023-04-19T15:22:46.016Z,100018.13
2023-04-19T15:25:12.847Z,100022.50
2023-04-19T15:27:39.781Z,100017.53
2023-04-19T15:30:07.114Z,100018.34
2023-04-19T15:32:36.881Z,100017.91
2023-04-19T15:35:04.082Z,100010.03
2023-04-19T15:37:49.670Z,100010.84
2023-04-19T15:40:18.002Z,100018.91
2023-04-19T15:42:46.512Z,100021.00
2023-04-19T15:45:13.887Z,100025.78
2023-04-19T15:47:40.914Z,100020.34
2023-04-19T15:50:08.417Z,100018.22
2023-04-19T15:55:40.145Z,100016.09
2023-04-19T15:58:07.293Z,100021.25
2023-04-19T16:00:52.735Z,100023.38
2023-04-19T16:03:19.734Z,100012.75
2023-04-19T16:05:46.957Z,100017.56
2023-04-19T16:08:32.616Z,100014.44
2023-04-19T16:13:43.759Z,100003.81
2023-04-19T16:16:10.718Z,100021.47
2023-04-19T16:18:37.678Z,100013.53
2023-04-19T16:21:04.886Z,100009.16
2023-04-19T16:23:31.844Z,100017.91
2023-04-19T16:25:58.807Z,100018.09
2023-04-19T16:28:26.156Z,100021.81
2023-04-19T16:30:53.352Z,100018.84
2023-04-19T16:33:38.999Z,100030.81
2023-04-19T16:36:06.193Z,100030.81
2023-04-19T16:41:18.819Z,100020.75
2023-04-19T16:43:46.211Z,100030.75
2023-04-19T16:46:13.230Z,100033.66
2023-04-19T16:48:59.365Z,100034.38
2023-04-19T16:51:27.208Z,100032.72
2023-04-19T16:53:54.467Z,100037.50
2023-04-19T16:56:21.553Z,100035.19
2023-04-19T16:58:50.204Z,100033.97
2023-04-19T17:01:17.384Z,100043.66
2023-04-19T17:06:48.026Z,100034.47
2023-04-19T17:09:15.841Z,100042.09
2023-04-19T17:11:42.842Z,100040.91
2023-04-19T17:14:28.695Z,100042.94
2023-04-19T17:16:56.840Z,100036.91
2023-04-19T17:19:23.931Z,100042.91
2023-04-19T17:21:51.060Z,100037.47
2023-04-19T17:24:18.445Z,100046.56
2023-04-19T17:26:45.387Z,100046.88
2023-04-19T17:29:12.342Z,100044.13
2023-04-19T17:31:39.341Z,100050.56
2023-04-19T17:34:06.195Z,100042.03
2023-04-19T17:36:33.021Z,100046.53
2023-04-19T17:39:00.003Z,100039.28
2023-04-19T17:41:27.220Z,100049.03
2023-04-19T17:43:54.515Z,100045.66
2023-04-19T17:46:22.502Z,100045.16
2023-04-19T17:48:49.499Z,100049.34
2023-04-19T17:54:00.663Z,100043.88
2023-04-19T17:56:27.611Z,100050.28
2023-04-19T17:59:31.540Z,100047.16
2023-04-19T18:02:18.203Z,100047.72
2023-04-19T18:04:45.771Z,100039.78
2023-04-19T18:07:12.940Z,100054.88
2023-04-19T18:09:58.187Z,100040.09
2023-04-19T18:12:25.140Z,100038.06
2023-04-19T18:14:52.397Z,100039.28
2023-04-19T18:17:19.347Z,100047.56
2023-04-19T18:19:46.238Z,100048.75
2023-04-19T18:22:13.135Z,100046.06
2023-04-19T18:27:49.613Z,100046.22
2023-04-19T18:30:16.642Z,100052.44
2023-04-19T18:32:43.657Z,100052.91
2023-04-19T18:35:10.773Z,100047.25
2023-04-19T18:37:37.640Z,100035.81
2023-04-19T18:40:07.757Z,100047.38
2023-04-19T18:42:34.669Z,100052.75
2023-04-19T18:45:02.108Z,100053.41
2023-04-19T18:47:31.150Z,100057.03
2023-04-19T18:50:19.034Z,100056.34
2023-04-19T18:52:46.173Z,100049.09
2023-04-19T18:58:16.072Z,100045.88
2023-04-19T19:00:43.271Z,100051.66
2023-04-19T19:03:24.579Z,100045.81
2023-04-19T19:05:57.959Z,100040.31
2023-04-19T19:08:25.489Z,100045.25
2023-04-19T19:11:29.162Z,100043.56
2023-04-19T19:17:39.006Z,100051.09
2023-04-19T19:20:24.547Z,100055.84
2023-04-19T19:23:10.245Z,100049.22
2023-04-19T19:25:37.181Z,100045.53
2023-04-19T19:28:09.150Z,100053.78
2023-04-19T19:30:40.101Z,100046.09
2023-04-19T19:33:28.530Z,100049.44
2023-04-19T19:35:56.228Z,100046.72
2023-04-19T19:38:23.210Z,100046.47
2023-04-19T19:41:11.129Z,100043.75
2023-04-19T19:43:56.485Z,100046.19
2023-04-19T19:47:00.413Z,100046.19
2023-04-19T19:49:27.692Z,100041.16
2023-04-19T19:54:38.725Z,100037.47
2023-04-19T19:59:38.020Z,100039.47
2023-04-19T20:02:05.582Z,100031.81
2023-04-19T20:04:35.068Z,100038.66
2023-04-19T20:09:50.912Z,100035.13
2023-04-19T20:12:17.817Z,100040.38
2023-04-19T20:14:44.802Z,100033.31
2023-04-19T20:17:30.757Z,100036.38
2023-04-19T20:19:58.444Z,100032.69
2023-04-19T20:22:25.775Z,100037.41
2023-04-19T20:24:53.009Z,100026.66
2023-04-19T20:27:20.145Z,100032.38
2023-04-19T20:29:47.146Z,100022.38
2023-04-19T20:32:14.105Z,100027.28
2023-04-19T20:34:41.018Z,100031.00
2023-04-19T20:37:08.957Z,100030.16
2023-04-19T20:39:36.080Z,100024.78
2023-04-19T20:42:03.724Z,100026.59
2023-04-19T20:44:31.329Z,100026.59
2023-04-19T20:46:58.174Z,100029.69
2023-04-19T20:49:25.133Z,100013.88
2023-04-19T20:51:52.033Z,100017.41
2023-04-19T20:54:19.140Z,100021.31
2023-04-19T20:56:47.398Z,100019.19
2023-04-19T20:59:14.183Z,100022.88
2023-04-19T21:01:41.637Z,100020.38
2023-04-19T21:04:08.800Z,100023.31
2023-04-19T21:06:36.048Z,100021.84
2023-04-19T21:09:21.375Z,100018.03
2023-04-19T21:11:48.285Z,100022.91
2023-04-19T21:14:15.119Z,100015.88
2023-04-19T21:16:42.161Z,100017.88
2023-04-19T21:19:09.118Z,100010.84
2023-04-19T21:21:36.028Z,100015.75
2023-04-19T21:24:02.867Z,100012.88
2023-04-19T21:26:29.751Z,100018.72
2023-04-19T21:28:56.793Z,100011.69
2023-04-19T21:31:23.727Z,100017.25
2023-04-19T21:33:50.720Z,100019.16
2023-04-19T21:36:17.572Z,100002.72
2023-04-19T21:38:44.494Z,100008.16
2023-04-19T21:41:11.598Z,99996.38
2023-04-19T21:43:38.403Z,100003.81
2023-04-19T21:46:05.417Z,99999.63
2023-04-19T21:48:32.335Z,100010.19
2023-04-19T21:51:00.165Z,100005.84
2023-04-19T21:53:27.188Z,100015.94
2023-04-19T21:55:54.054Z,100011.75
2023-04-19T21:58:20.869Z,100008.59
2023-04-19T22:00:48.293Z,100006.78
2023-04-19T22:03:15.668Z,100002.63
2023-04-19T22:05:43.364Z,100000.13
2023-04-19T22:08:10.646Z,100001.28
2023-04-19T22:10:37.816Z,100001.63
2023-04-19T22:13:05.197Z,100003.88
2023-04-19T22:15:31.991Z,99995.31
2023-04-19T22:17:59.070Z,100000.69
2023-04-19T22:20:26.962Z,100000.72
2023-04-19T22:22:53.805Z,99995.88
2023-04-19T22:25:20.892Z,99995.41
2023-04-19T23:00:58.415Z,99968.91
2023-04-19T23:11:35.434Z,99978.91
2023-04-19T23:22:32.328Z,99971.88
2023-04-19T23:25:06.247Z,99965.38
2023-04-19T23:38:24.337Z,99962.06
2023-04-19T23:54:56.656Z,99957.53
